Fairplay, CO

2:54 AM MDT on May 04, 2015 (GMT -0600)
Indian Mountain | | Change Station
CLOSE
Current Station
Personal Weather Station
Location: Jefferson, CO
Elevation: 9724 ft
Nearby Weather Stations

Elev 9724 ft 39.26 °N, 105.78 °W | Updated 7 minutes ago

Overcast
Overcast
33.8 °F
Feels Like 34 °F
N
0.0
Wind Variable Wind from SE

Today
High -- | Low -- °F
--% Chance of Precip.
Yesterday
High -- | Low -- °F
Precip. -- in
6:01 AM 7:58 PM
Full, 100% visible
Pressure 30.30 in
Visibility 0.2 miles
Clouds Overcast 100 ft
Windchill 34 °F
Dew Point 34 °F
Humidity 99%
Rainfall 0.05 in
Snow Depth Not available.
UV 0 out of 12
Pollen 9.90 out of 12
Air Quality Not available.
Flu Activity Sporadic
METAR K4BM 040834Z AUTO 14004KT M1/4SM SN OVC001 00/00 A3030 RMK AO2

More Conditions Fewer Conditions

Pressure 30.30 in
Visibility 0.2 miles
Clouds Overcast 100 ft
Windchill 34 °F
Dew Point 34 °F
Humidity 99%
Rainfall 0.05 in
Snow Depth Not available.
UV 0 out of 12
Pollen 9.90 out of 12
Air Quality Not available.
Flu Activity Sporadic
METAR K4BM 040834Z AUTO 14004KT M1/4SM SN OVC001 00/00 A3030 RMK AO2

More Conditions Fewer Conditions

Nepal has a long way to go to dig out and rebuild from a devastating earthquake. We have teamed up with several charities and organizations to make contributing to the relief effort as easy as possible.
How you can help: Portlight Strategies | Red Cross
Nowcast | as of 12:39 am MDT on May 4, 2015

A few lingering rain showers will continue over the mountains and high valleys mainly north of i70. South of i70...rain and snow showers are increasing across Park County and will spread north through the early morning hours...mainly along the eastern slopes of the Front Range. Snow levels are around 10 thousand feet.

×

10-Day Weather Forecast

Almanac

Astronomy

May. 04, 2015 Rise Set
Actual Time
Civil Twilight
Nautical Twilight
Astronomical Twilight
Moon
Length of Visible Light
Length of Day
Tomorrow will be .
, % of the Moon is Illuminated

Today's Extremes

State Highs State Lows

Community

WunderPhotos

Upload Photos

1,818,548 photos uploaded!

WunderBlogs® & News

Nearby

Air Quality

  Air Quality AQ Index Pollutant
Not available.

Snow Depth

Station Depth Elevation

Earthquake Activity

City Distance Mag. Time & Date
Minimum magnitude displayed is 2.5.

Coastal Water Temperatures

Place Temperature

Stations

Nearby Weather Stations

Station Location Temp. Windchill Dew Point Humidity Wind Precip. Elev Updated Type